sensor_id;sensor_type;location;lat;lon;timestamp;P1;durP1;ratioP1;P2;durP2;ratioP2
32932;SDS011;19444;50.518;10.870;2022-08-03T00:02:41;2.50;;;1.48;;
32932;SDS011;19444;50.518;10.870;2022-08-03T00:05:38;1.80;;;1.52;;
32932;SDS011;19444;50.518;10.870;2022-08-03T00:08:55;2.58;;;1.70;;
32932;SDS011;19444;50.518;10.870;2022-08-03T00:11:52;2.50;;;1.70;;
32932;SDS011;19444;50.518;10.870;2022-08-03T00:14:49;1.88;;;1.60;;
32932;SDS011;19444;50.518;10.870;2022-08-03T00:17:46;3.10;;;1.70;;
32932;SDS011;19444;50.518;10.870;2022-08-03T00:20:49;2.15;;;1.50;;
32932;SDS011;19444;50.518;10.870;2022-08-03T00:23:46;1.52;;;1.35;;
32932;SDS011;19444;50.518;10.870;2022-08-03T00:26:47;1.55;;;1.40;;
32932;SDS011;19444;50.518;10.870;2022-08-03T00:29:44;2.20;;;1.50;;
32932;SDS011;19444;50.518;10.870;2022-08-03T00:32:55;2.72;;;1.73;;
32932;SDS011;19444;50.518;10.870;2022-08-03T00:35:53;2.70;;;1.60;;
32932;SDS011;19444;50.518;10.870;2022-08-03T00:38:50;3.38;;;1.35;;
32932;SDS011;19444;50.518;10.870;2022-08-03T00:41:47;1.63;;;1.50;;
32932;SDS011;19444;50.518;10.870;2022-08-03T00:44:44;2.25;;;1.88;;
32932;SDS011;19444;50.518;10.870;2022-08-03T00:47:41;2.50;;;1.35;;
32932;SDS011;19444;50.518;10.870;2022-08-03T00:50:38;1.50;;;1.30;;
32932;SDS011;19444;50.518;10.870;2022-08-03T00:53:37;1.70;;;1.58;;
32932;SDS011;19444;50.518;10.870;2022-08-03T00:56:35;2.15;;;1.80;;
32932;SDS011;19444;50.518;10.870;2022-08-03T00:59:53;2.13;;;1.60;;
32932;SDS011;19444;50.518;10.870;2022-08-03T01:02:51;2.22;;;2.00;;
32932;SDS011;19444;50.518;10.870;2022-08-03T01:05:52;1.92;;;1.45;;
32932;SDS011;19444;50.518;10.870;2022-08-03T01:09:05;1.75;;;1.58;;
32932;SDS011;19444;50.518;10.870;2022-08-03T01:12:21;2.00;;;1.80;;
32932;SDS011;19444;50.518;10.870;2022-08-03T01:15:53;1.70;;;1.48;;
32932;SDS011;19444;50.518;10.870;2022-08-03T01:19:40;2.20;;;1.83;;
32932;SDS011;19444;50.518;10.870;2022-08-03T01:22:59;1.70;;;1.55;;
32932;SDS011;19444;50.518;10.870;2022-08-03T01:33:02;5.00;;;1.88;;
32932;SDS011;19444;50.518;10.870;2022-08-03T01:36:11;3.35;;;1.63;;
32932;SDS011;19444;50.518;10.870;2022-08-03T01:39:13;2.83;;;1.67;;
32932;SDS011;19444;50.518;10.870;2022-08-03T01:42:12;2.95;;;1.77;;
32932;SDS011;19444;50.518;10.870;2022-08-03T01:45:12;2.00;;;1.80;;
32932;SDS011;19444;50.518;10.870;2022-08-03T01:48:14;2.10;;;1.90;;
32932;SDS011;19444;50.518;10.870;2022-08-03T01:51:12;2.38;;;1.75;;
32932;SDS011;19444;50.518;10.870;2022-08-03T01:54:13;3.45;;;1.80;;
32932;SDS011;19444;50.518;10.870;2022-08-03T01:57:12;2.08;;;1.88;;
32932;SDS011;19444;50.518;10.870;2022-08-03T02:00:10;2.58;;;2.17;;
32932;SDS011;19444;50.518;10.870;2022-08-03T02:03:09;2.08;;;1.88;;
32932;SDS011;19444;50.518;10.870;2022-08-03T02:06:09;2.15;;;1.60;;
32932;SDS011;19444;50.518;10.870;2022-08-03T02:09:27;3.00;;;2.10;;
32932;SDS011;19444;50.518;10.870;2022-08-03T02:12:26;1.77;;;1.50;;
32932;SDS011;19444;50.518;10.870;2022-08-03T02:18:25;2.08;;;1.75;;
32932;SDS011;19444;50.518;10.870;2022-08-03T02:21:25;2.30;;;2.10;;
32932;SDS011;19444;50.518;10.870;2022-08-03T02:24:46;2.00;;;1.80;;
32932;SDS011;19444;50.518;10.870;2022-08-03T02:27:58;2.83;;;2.17;;
32932;SDS011;19444;50.518;10.870;2022-08-03T02:31:04;3.72;;;2.30;;
32932;SDS011;19444;50.518;10.870;2022-08-03T02:37:12;2.00;;;1.80;;
32932;SDS011;19444;50.518;10.870;2022-08-03T02:40:10;5.15;;;2.00;;
32932;SDS011;19444;50.518;10.870;2022-08-03T02:43:09;2.10;;;1.90;;
32932;SDS011;19444;50.518;10.870;2022-08-03T02:46:12;2.72;;;1.98;;
32932;SDS011;19444;50.518;10.870;2022-08-03T02:49:13;2.10;;;1.90;;
32932;SDS011;19444;50.518;10.870;2022-08-03T02:52:34;2.33;;;2.13;;
32932;SDS011;19444;50.518;10.870;2022-08-03T02:55:32;2.30;;;2.10;;
32932;SDS011;19444;50.518;10.870;2022-08-03T02:58:38;2.55;;;2.35;;
32932;SDS011;19444;50.518;10.870;2022-08-03T03:04:35;3.00;;;2.10;;
32932;SDS011;19444;50.518;10.870;2022-08-03T03:07:50;2.67;;;2.17;;
32932;SDS011;19444;50.518;10.870;2022-08-03T03:10:49;2.40;;;2.20;;
32932;SDS011;19444;50.518;10.870;2022-08-03T03:13:50;2.95;;;2.10;;
32932;SDS011;19444;50.518;10.870;2022-08-03T03:16:49;2.63;;;2.00;;
32932;SDS011;19444;50.518;10.870;2022-08-03T03:19:53;3.63;;;2.10;;
32932;SDS011;19444;50.518;10.870;2022-08-03T03:22:51;2.35;;;2.10;;
32932;SDS011;19444;50.518;10.870;2022-08-03T03:25:48;2.50;;;2.30;;
32932;SDS011;19444;50.518;10.870;2022-08-03T03:28:46;2.40;;;2.20;;
32932;SDS011;19444;50.518;10.870;2022-08-03T03:31:44;2.22;;;1.95;;
32932;SDS011;19444;50.518;10.870;2022-08-03T03:34:41;2.25;;;1.83;;
32932;SDS011;19444;50.518;10.870;2022-08-03T03:37:39;3.67;;;2.05;;
32932;SDS011;19444;50.518;10.870;2022-08-03T03:40:36;3.47;;;2.28;;
32932;SDS011;19444;50.518;10.870;2022-08-03T03:43:34;3.35;;;2.00;;
32932;SDS011;19444;50.518;10.870;2022-08-03T03:46:31;3.65;;;1.80;;
32932;SDS011;19444;50.518;10.870;2022-08-03T03:49:28;3.22;;;2.72;;
32932;SDS011;19444;50.518;10.870;2022-08-03T03:52:26;3.45;;;2.72;;
32932;SDS011;19444;50.518;10.870;2022-08-03T03:55:23;2.45;;;2.25;;
32932;SDS011;19444;50.518;10.870;2022-08-03T03:58:20;3.55;;;2.20;;
32932;SDS011;19444;50.518;10.870;2022-08-03T04:01:20;2.20;;;1.80;;
32932;SDS011;19444;50.518;10.870;2022-08-03T04:04:17;2.97;;;2.22;;
32932;SDS011;19444;50.518;10.870;2022-08-03T04:07:34;2.40;;;2.10;;
32932;SDS011;19444;50.518;10.870;2022-08-03T04:11:18;3.85;;;2.25;;
32932;SDS011;19444;50.518;10.870;2022-08-03T04:17:30;2.58;;;2.25;;
32932;SDS011;19444;50.518;10.870;2022-08-03T04:20:29;4.20;;;2.00;;
32932;SDS011;19444;50.518;10.870;2022-08-03T04:23:32;3.17;;;2.10;;
32932;SDS011;19444;50.518;10.870;2022-08-03T04:26:32;2.28;;;1.92;;
32932;SDS011;19444;50.518;10.870;2022-08-03T04:29:34;3.35;;;1.67;;
32932;SDS011;19444;50.518;10.870;2022-08-03T04:32:44;3.33;;;2.17;;
32932;SDS011;19444;50.518;10.870;2022-08-03T04:35:46;2.97;;;2.33;;
32932;SDS011;19444;50.518;10.870;2022-08-03T04:42:10;3.55;;;1.90;;
32932;SDS011;19444;50.518;10.870;2022-08-03T04:45:12;2.53;;;1.45;;
32932;SDS011;19444;50.518;10.870;2022-08-03T04:48:11;3.10;;;2.22;;
32932;SDS011;19444;50.518;10.870;2022-08-03T04:51:10;3.05;;;2.28;;
32932;SDS011;19444;50.518;10.870;2022-08-03T04:54:11;4.05;;;2.17;;
32932;SDS011;19444;50.518;10.870;2022-08-03T04:57:09;4.25;;;2.60;;
32932;SDS011;19444;50.518;10.870;2022-08-03T05:00:18;3.17;;;1.95;;
32932;SDS011;19444;50.518;10.870;2022-08-03T05:03:16;2.42;;;2.10;;
32932;SDS011;19444;50.518;10.870;2022-08-03T05:06:19;1.85;;;1.63;;
32932;SDS011;19444;50.518;10.870;2022-08-03T05:09:20;3.33;;;1.95;;
32932;SDS011;19444;50.518;10.870;2022-08-03T05:12:37;3.72;;;1.92;;
32932;SDS011;19444;50.518;10.870;2022-08-03T05:15:34;2.63;;;2.42;;
32932;SDS011;19444;50.518;10.870;2022-08-03T05:18:38;2.67;;;2.20;;
32932;SDS011;19444;50.518;10.870;2022-08-03T05:21:37;2.55;;;2.33;;
32932;SDS011;19444;50.518;10.870;2022-08-03T05:24:47;2.47;;;2.28;;
32932;SDS011;19444;50.518;10.870;2022-08-03T05:27:45;3.65;;;2.63;;
32932;SDS011;19444;50.518;10.870;2022-08-03T05:30:41;2.75;;;2.28;;
32932;SDS011;19444;50.518;10.870;2022-08-03T05:33:38;3.15;;;2.40;;
32932;SDS011;19444;50.518;10.870;2022-08-03T05:36:36;3.67;;;1.95;;
32932;SDS011;19444;50.518;10.870;2022-08-03T05:39:33;3.33;;;2.72;;
32932;SDS011;19444;50.518;10.870;2022-08-03T05:42:30;4.55;;;2.50;;
32932;SDS011;19444;50.518;10.870;2022-08-03T05:45:26;2.60;;;2.40;;
32932;SDS011;19444;50.518;10.870;2022-08-03T05:48:24;2.85;;;2.55;;
32932;SDS011;19444;50.518;10.870;2022-08-03T05:51:20;2.60;;;2.40;;
32932;SDS011;19444;50.518;10.870;2022-08-03T05:54:17;3.28;;;2.60;;
32932;SDS011;19444;50.518;10.870;2022-08-03T05:57:14;5.03;;;3.13;;
32932;SDS011;19444;50.518;10.870;2022-08-03T06:00:11;5.10;;;2.80;;
32932;SDS011;19444;50.518;10.870;2022-08-03T06:03:10;3.75;;;2.72;;
32932;SDS011;19444;50.518;10.870;2022-08-03T06:06:07;3.25;;;2.83;;
32932;SDS011;19444;50.518;10.870;2022-08-03T06:09:04;4.47;;;2.85;;
32932;SDS011;19444;50.518;10.870;2022-08-03T06:12:01;3.10;;;2.80;;
32932;SDS011;19444;50.518;10.870;2022-08-03T06:14:58;4.03;;;3.20;;
32932;SDS011;19444;50.518;10.870;2022-08-03T06:17:55;3.83;;;2.90;;
32932;SDS011;19444;50.518;10.870;2022-08-03T06:20:57;4.05;;;2.92;;
32932;SDS011;19444;50.518;10.870;2022-08-03T06:24:10;4.70;;;3.15;;
32932;SDS011;19444;50.518;10.870;2022-08-03T06:27:07;3.47;;;2.72;;
32932;SDS011;19444;50.518;10.870;2022-08-03T06:30:04;3.10;;;2.40;;
32932;SDS011;19444;50.518;10.870;2022-08-03T06:33:03;4.43;;;3.00;;
32932;SDS011;19444;50.518;10.870;2022-08-03T06:36:03;3.33;;;3.03;;
32932;SDS011;19444;50.518;10.870;2022-08-03T06:39:01;2.95;;;2.65;;
32932;SDS011;19444;50.518;10.870;2022-08-03T06:41:58;4.25;;;2.60;;
32932;SDS011;19444;50.518;10.870;2022-08-03T06:44:55;3.60;;;3.30;;
32932;SDS011;19444;50.518;10.870;2022-08-03T06:48:06;3.83;;;2.58;;
32932;SDS011;19444;50.518;10.870;2022-08-03T06:51:05;2.58;;;2.35;;
32932;SDS011;19444;50.518;10.870;2022-08-03T06:54:02;2.83;;;2.38;;
32932;SDS011;19444;50.518;10.870;2022-08-03T06:57:00;3.20;;;2.65;;
32932;SDS011;19444;50.518;10.870;2022-08-03T06:59:56;3.92;;;2.63;;
32932;SDS011;19444;50.518;10.870;2022-08-03T07:03:07;3.50;;;2.78;;
32932;SDS011;19444;50.518;10.870;2022-08-03T07:06:04;3.78;;;2.70;;
32932;SDS011;19444;50.518;10.870;2022-08-03T07:09:01;5.72;;;3.05;;
32932;SDS011;19444;50.518;10.870;2022-08-03T07:11:58;2.70;;;2.50;;
32932;SDS011;19444;50.518;10.870;2022-08-03T07:14:58;3.15;;;2.50;;
32932;SDS011;19444;50.518;10.870;2022-08-03T07:17:57;2.80;;;2.53;;
32932;SDS011;19444;50.518;10.870;2022-08-03T07:20:54;3.97;;;2.47;;
32932;SDS011;19444;50.518;10.870;2022-08-03T07:23:52;4.60;;;2.75;;
32932;SDS011;19444;50.518;10.870;2022-08-03T07:26:49;9.68;;;3.08;;
32932;SDS011;19444;50.518;10.870;2022-08-03T07:29:46;5.68;;;2.88;;
32932;SDS011;19444;50.518;10.870;2022-08-03T07:32:43;4.00;;;2.33;;
32932;SDS011;19444;50.518;10.870;2022-08-03T07:35:45;2.53;;;2.33;;
32932;SDS011;19444;50.518;10.870;2022-08-03T07:38:42;3.25;;;2.33;;
32932;SDS011;19444;50.518;10.870;2022-08-03T07:41:39;2.45;;;2.17;;
32932;SDS011;19444;50.518;10.870;2022-08-03T07:44:37;2.80;;;2.10;;
32932;SDS011;19444;50.518;10.870;2022-08-03T07:47:34;2.67;;;2.15;;
32932;SDS011;19444;50.518;10.870;2022-08-03T07:50:31;4.75;;;2.35;;
32932;SDS011;19444;50.518;10.870;2022-08-03T07:53:28;2.40;;;2.00;;
32932;SDS011;19444;50.518;10.870;2022-08-03T07:56:25;2.80;;;2.00;;
32932;SDS011;19444;50.518;10.870;2022-08-03T07:59:22;2.00;;;1.83;;
32932;SDS011;19444;50.518;10.870;2022-08-03T08:02:19;2.00;;;1.52;;
32932;SDS011;19444;50.518;10.870;2022-08-03T08:05:16;3.08;;;1.38;;
32932;SDS011;19444;50.518;10.870;2022-08-03T08:08:13;2.63;;;1.67;;
32932;SDS011;19444;50.518;10.870;2022-08-03T08:11:10;2.08;;;1.52;;
32932;SDS011;19444;50.518;10.870;2022-08-03T08:14:07;4.28;;;1.58;;
32932;SDS011;19444;50.518;10.870;2022-08-03T08:17:04;1.60;;;1.40;;
32932;SDS011;19444;50.518;10.870;2022-08-03T08:20:02;3.25;;;1.80;;
32932;SDS011;19444;50.518;10.870;2022-08-03T08:23:02;2.17;;;1.27;;
32932;SDS011;19444;50.518;10.870;2022-08-03T08:26:23;2.92;;;1.58;;
32932;SDS011;19444;50.518;10.870;2022-08-03T08:29:20;2.13;;;1.50;;
32932;SDS011;19444;50.518;10.870;2022-08-03T08:32:18;6.47;;;1.70;;
32932;SDS011;19444;50.518;10.870;2022-08-03T08:35:15;4.63;;;1.40;;
32932;SDS011;19444;50.518;10.870;2022-08-03T08:38:13;2.47;;;1.48;;
32932;SDS011;19444;50.518;10.870;2022-08-03T08:41:10;3.20;;;1.67;;
32932;SDS011;19444;50.518;10.870;2022-08-03T08:44:09;2.55;;;1.50;;
32932;SDS011;19444;50.518;10.870;2022-08-03T08:47:06;2.15;;;1.63;;
32932;SDS011;19444;50.518;10.870;2022-08-03T08:50:04;2.42;;;1.95;;
32932;SDS011;19444;50.518;10.870;2022-08-03T08:53:27;1.92;;;1.70;;
32932;SDS011;19444;50.518;10.870;2022-08-03T08:56:25;3.08;;;1.60;;
32932;SDS011;19444;50.518;10.870;2022-08-03T08:59:23;1.90;;;1.40;;
32932;SDS011;19444;50.518;10.870;2022-08-03T09:02:21;1.45;;;1.20;;
32932;SDS011;19444;50.518;10.870;2022-08-03T09:05:19;3.80;;;1.67;;
32932;SDS011;19444;50.518;10.870;2022-08-03T09:08:36;2.58;;;1.80;;
32932;SDS011;19444;50.518;10.870;2022-08-03T09:11:33;4.03;;;1.52;;
32932;SDS011;19444;50.518;10.870;2022-08-03T09:14:51;2.47;;;1.70;;
32932;SDS011;19444;50.518;10.870;2022-08-03T09:18:08;2.40;;;1.33;;
32932;SDS011;19444;50.518;10.870;2022-08-03T09:21:11;2.17;;;1.85;;
32932;SDS011;19444;50.518;10.870;2022-08-03T09:24:30;1.67;;;1.50;;
32932;SDS011;19444;50.518;10.870;2022-08-03T09:27:43;3.40;;;1.50;;
32932;SDS011;19444;50.518;10.870;2022-08-03T09:30:42;2.25;;;1.35;;
32932;SDS011;19444;50.518;10.870;2022-08-03T09:33:53;1.83;;;1.45;;
32932;SDS011;19444;50.518;10.870;2022-08-03T09:36:54;1.98;;;1.55;;
32932;SDS011;19444;50.518;10.870;2022-08-03T09:39:53;4.05;;;1.60;;
32932;SDS011;19444;50.518;10.870;2022-08-03T09:42:57;2.45;;;1.88;;
32932;SDS011;19444;50.518;10.870;2022-08-03T09:46:03;1.92;;;1.52;;
32932;SDS011;19444;50.518;10.870;2022-08-03T09:49:09;1.75;;;1.58;;
32932;SDS011;19444;50.518;10.870;2022-08-03T09:52:11;2.80;;;1.40;;
32932;SDS011;19444;50.518;10.870;2022-08-03T09:55:34;1.48;;;1.27;;
32932;SDS011;19444;50.518;10.870;2022-08-03T09:58:51;3.13;;;1.30;;
32932;SDS011;19444;50.518;10.870;2022-08-03T10:01:48;2.10;;;1.80;;
32932;SDS011;19444;50.518;10.870;2022-08-03T10:04:48;1.40;;;1.30;;
32932;SDS011;19444;50.518;10.870;2022-08-03T10:07:48;1.58;;;1.35;;
32932;SDS011;19444;50.518;10.870;2022-08-03T10:10:46;2.28;;;1.25;;
32932;SDS011;19444;50.518;10.870;2022-08-03T10:13:45;2.60;;;1.70;;
32932;SDS011;19444;50.518;10.870;2022-08-03T10:16:43;1.98;;;1.77;;
32932;SDS011;19444;50.518;10.870;2022-08-03T10:19:41;1.83;;;1.60;;
32932;SDS011;19444;50.518;10.870;2022-08-03T10:22:39;1.33;;;1.23;;
32932;SDS011;19444;50.518;10.870;2022-08-03T10:25:37;3.08;;;1.85;;
32932;SDS011;19444;50.518;10.870;2022-08-03T10:28:38;1.88;;;0.95;;
32932;SDS011;19444;50.518;10.870;2022-08-03T10:31:43;2.03;;;1.38;;
32932;SDS011;19444;50.518;10.870;2022-08-03T10:34:53;2.13;;;1.35;;
32932;SDS011;19444;50.518;10.870;2022-08-03T10:38:17;1.77;;;1.30;;
32932;SDS011;19444;50.518;10.870;2022-08-03T10:41:19;1.58;;;1.05;;
32932;SDS011;19444;50.518;10.870;2022-08-03T10:44:19;3.28;;;1.25;;
32932;SDS011;19444;50.518;10.870;2022-08-03T10:47:19;1.83;;;1.10;;
32932;SDS011;19444;50.518;10.870;2022-08-03T10:50:16;2.33;;;1.10;;
32932;SDS011;19444;50.518;10.870;2022-08-03T10:53:15;1.23;;;1.13;;
32932;SDS011;19444;50.518;10.870;2022-08-03T11:03:01;1.25;;;1.10;;
32932;SDS011;19444;50.518;10.870;2022-08-03T11:06:16;1.50;;;1.40;;
32932;SDS011;19444;50.518;10.870;2022-08-03T11:09:16;3.00;;;1.10;;
32932;SDS011;19444;50.518;10.870;2022-08-03T11:12:23;1.50;;;1.20;;
32932;SDS011;19444;50.518;10.870;2022-08-03T11:15:31;1.40;;;1.30;;
32932;SDS011;19444;50.518;10.870;2022-08-03T11:18:30;1.45;;;1.27;;
32932;SDS011;19444;50.518;10.870;2022-08-03T11:27:46;1.88;;;1.40;;
32932;SDS011;19444;50.518;10.870;2022-08-03T11:30:43;1.45;;;1.08;;
32932;SDS011;19444;50.518;10.870;2022-08-03T11:33:40;2.15;;;1.20;;
32932;SDS011;19444;50.518;10.870;2022-08-03T11:43:57;2.10;;;1.25;;
32932;SDS011;19444;50.518;10.870;2022-08-03T11:46:55;1.55;;;1.40;;
32932;SDS011;19444;50.518;10.870;2022-08-03T11:49:54;3.28;;;1.33;;
32932;SDS011;19444;50.518;10.870;2022-08-03T11:52:54;1.33;;;1.23;;
32932;SDS011;19444;50.518;10.870;2022-08-03T11:55:51;1.55;;;1.27;;
32932;SDS011;19444;50.518;10.870;2022-08-03T11:58:49;1.20;;;1.10;;
32932;SDS011;19444;50.518;10.870;2022-08-03T12:02:11;1.50;;;1.40;;
32932;SDS011;19444;50.518;10.870;2022-08-03T12:05:11;1.30;;;1.17;;
32932;SDS011;19444;50.518;10.870;2022-08-03T12:08:09;1.60;;;1.50;;
32932;SDS011;19444;50.518;10.870;2022-08-03T12:11:08;1.58;;;1.10;;
32932;SDS011;19444;50.518;10.870;2022-08-03T12:14:08;1.63;;;1.30;;
32932;SDS011;19444;50.518;10.870;2022-08-03T12:17:36;2.10;;;1.10;;
32932;SDS011;19444;50.518;10.870;2022-08-03T12:20:36;1.77;;;0.98;;
32932;SDS011;19444;50.518;10.870;2022-08-03T12:23:33;1.75;;;1.52;;
32932;SDS011;19444;50.518;10.870;2022-08-03T12:29:55;1.70;;;1.08;;
32932;SDS011;19444;50.518;10.870;2022-08-03T12:32:54;1.10;;;1.00;;
32932;SDS011;19444;50.518;10.870;2022-08-03T12:39:03;1.15;;;1.05;;
32932;SDS011;19444;50.518;10.870;2022-08-03T12:42:03;2.95;;;1.75;;
32932;SDS011;19444;50.518;10.870;2022-08-03T12:45:16;1.38;;;1.25;;
32932;SDS011;19444;50.518;10.870;2022-08-03T12:48:24;2.45;;;1.25;;
32932;SDS011;19444;50.518;10.870;2022-08-03T12:51:23;1.77;;;1.10;;
32932;SDS011;19444;50.518;10.870;2022-08-03T12:54:23;1.90;;;1.02;;
32932;SDS011;19444;50.518;10.870;2022-08-03T12:57:38;1.27;;;1.15;;
32932;SDS011;19444;50.518;10.870;2022-08-03T13:00:37;1.17;;;1.00;;
32932;SDS011;19444;50.518;10.870;2022-08-03T13:06:45;1.50;;;1.30;;
32932;SDS011;19444;50.518;10.870;2022-08-03T13:09:58;1.17;;;1.08;;
32932;SDS011;19444;50.518;10.870;2022-08-03T13:13:01;3.72;;;1.23;;
32932;SDS011;19444;50.518;10.870;2022-08-03T13:15:59;1.55;;;1.45;;
32932;SDS011;19444;50.518;10.870;2022-08-03T13:18:56;2.22;;;1.33;;
32932;SDS011;19444;50.518;10.870;2022-08-03T13:21:53;1.42;;;1.08;;
32932;SDS011;19444;50.518;10.870;2022-08-03T13:25:00;3.08;;;1.40;;
32932;SDS011;19444;50.518;10.870;2022-08-03T13:27:59;1.30;;;1.20;;
32932;SDS011;19444;50.518;10.870;2022-08-03T13:31:01;2.25;;;1.50;;
32932;SDS011;19444;50.518;10.870;2022-08-03T13:33:58;1.83;;;1.10;;
32932;SDS011;19444;50.518;10.870;2022-08-03T13:36:55;1.83;;;1.10;;
32932;SDS011;19444;50.518;10.870;2022-08-03T13:40:05;1.77;;;1.45;;
32932;SDS011;19444;50.518;10.870;2022-08-03T13:43:06;1.95;;;0.93;;
32932;SDS011;19444;50.518;10.870;2022-08-03T13:46:04;1.20;;;1.10;;
32932;SDS011;19444;50.518;10.870;2022-08-03T13:49:01;2.42;;;1.30;;
32932;SDS011;19444;50.518;10.870;2022-08-03T13:51:58;3.35;;;1.38;;
32932;SDS011;19444;50.518;10.870;2022-08-03T13:54:54;1.55;;;1.25;;
32932;SDS011;19444;50.518;10.870;2022-08-03T13:57:51;1.90;;;1.00;;
32932;SDS011;19444;50.518;10.870;2022-08-03T14:01:01;1.92;;;0.98;;
32932;SDS011;19444;50.518;10.870;2022-08-03T14:03:58;1.33;;;0.98;;
32932;SDS011;19444;50.518;10.870;2022-08-03T14:06:55;1.58;;;1.20;;
32932;SDS011;19444;50.518;10.870;2022-08-03T14:09:52;1.65;;;1.20;;
32932;SDS011;19444;50.518;10.870;2022-08-03T14:12:49;1.25;;;0.90;;
32932;SDS011;19444;50.518;10.870;2022-08-03T14:15:46;1.50;;;1.05;;
32932;SDS011;19444;50.518;10.870;2022-08-03T14:18:46;1.27;;;0.95;;
32932;SDS011;19444;50.518;10.870;2022-08-03T14:21:43;1.95;;;1.10;;
32932;SDS011;19444;50.518;10.870;2022-08-03T14:24:54;1.17;;;0.95;;
32932;SDS011;19444;50.518;10.870;2022-08-03T14:27:51;1.20;;;1.10;;
32932;SDS011;19444;50.518;10.870;2022-08-03T14:30:48;2.70;;;1.00;;
32932;SDS011;19444;50.518;10.870;2022-08-03T14:33:49;1.23;;;1.10;;
32932;SDS011;19444;50.518;10.870;2022-08-03T14:36:46;1.20;;;1.10;;
32932;SDS011;19444;50.518;10.870;2022-08-03T14:39:43;1.20;;;0.88;;
32932;SDS011;19444;50.518;10.870;2022-08-03T14:42:57;2.63;;;1.08;;
32932;SDS011;19444;50.518;10.870;2022-08-03T14:45:54;2.33;;;0.88;;
32932;SDS011;19444;50.518;10.870;2022-08-03T14:48:51;1.13;;;0.88;;
32932;SDS011;19444;50.518;10.870;2022-08-03T14:52:08;1.05;;;0.90;;
32932;SDS011;19444;50.518;10.870;2022-08-03T14:55:05;0.77;;;0.75;;
32932;SDS011;19444;50.518;10.870;2022-08-03T14:58:02;1.63;;;0.90;;
32932;SDS011;19444;50.518;10.870;2022-08-03T15:01:16;1.30;;;0.90;;
32932;SDS011;19444;50.518;10.870;2022-08-03T15:04:32;2.92;;;1.05;;
32932;SDS011;19444;50.518;10.870;2022-08-03T15:07:29;3.10;;;0.90;;
32932;SDS011;19444;50.518;10.870;2022-08-03T15:10:26;1.52;;;0.90;;
32932;SDS011;19444;50.518;10.870;2022-08-03T15:13:38;1.20;;;0.93;;
32932;SDS011;19444;50.518;10.870;2022-08-03T15:16:36;1.85;;;1.00;;
32932;SDS011;19444;50.518;10.870;2022-08-03T15:19:33;0.90;;;0.80;;
32932;SDS011;19444;50.518;10.870;2022-08-03T15:22:50;1.73;;;0.90;;
32932;SDS011;19444;50.518;10.870;2022-08-03T15:25:47;3.38;;;0.93;;
32932;SDS011;19444;50.518;10.870;2022-08-03T15:29:04;0.88;;;0.80;;
32932;SDS011;19444;50.518;10.870;2022-08-03T15:32:03;1.88;;;0.93;;
32932;SDS011;19444;50.518;10.870;2022-08-03T15:35:04;2.15;;;1.05;;
32932;SDS011;19444;50.518;10.870;2022-08-03T15:38:01;1.13;;;0.68;;
32932;SDS011;19444;50.518;10.870;2022-08-03T15:41:04;0.88;;;0.88;;
32932;SDS011;19444;50.518;10.870;2022-08-03T15:44:08;1.00;;;0.80;;
32932;SDS011;19444;50.518;10.870;2022-08-03T15:47:05;1.17;;;0.95;;
32932;SDS011;19444;50.518;10.870;2022-08-03T15:50:06;1.25;;;0.80;;
32932;SDS011;19444;50.518;10.870;2022-08-03T15:53:05;3.22;;;1.17;;
32932;SDS011;19444;50.518;10.870;2022-08-03T15:56:02;1.17;;;1.00;;
32932;SDS011;19444;50.518;10.870;2022-08-03T15:59:06;1.30;;;1.20;;
32932;SDS011;19444;50.518;10.870;2022-08-03T16:02:08;1.92;;;0.95;;
32932;SDS011;19444;50.518;10.870;2022-08-03T16:05:05;1.50;;;0.90;;
32932;SDS011;19444;50.518;10.870;2022-08-03T16:08:03;1.98;;;1.08;;
32932;SDS011;19444;50.518;10.870;2022-08-03T16:11:05;1.58;;;1.10;;
32932;SDS011;19444;50.518;10.870;2022-08-03T16:14:02;4.20;;;1.35;;
32932;SDS011;19444;50.518;10.870;2022-08-03T16:17:19;1.30;;;0.90;;
32932;SDS011;19444;50.518;10.870;2022-08-03T16:20:17;1.55;;;1.15;;
32932;SDS011;19444;50.518;10.870;2022-08-03T16:23:29;1.75;;;1.02;;
32932;SDS011;19444;50.518;10.870;2022-08-03T16:26:29;1.80;;;1.05;;
32932;SDS011;19444;50.518;10.870;2022-08-03T16:29:30;2.85;;;0.93;;
32932;SDS011;19444;50.518;10.870;2022-08-03T16:32:29;0.95;;;0.85;;
32932;SDS011;19444;50.518;10.870;2022-08-03T16:35:29;1.13;;;0.90;;
32932;SDS011;19444;50.518;10.870;2022-08-03T16:38:31;0.90;;;0.70;;
32932;SDS011;19444;50.518;10.870;2022-08-03T16:41:28;1.05;;;0.95;;
32932;SDS011;19444;50.518;10.870;2022-08-03T16:44:45;2.67;;;0.80;;
32932;SDS011;19444;50.518;10.870;2022-08-03T16:47:42;1.17;;;1.08;;
32932;SDS011;19444;50.518;10.870;2022-08-03T16:50:39;1.05;;;0.80;;
32932;SDS011;19444;50.518;10.870;2022-08-03T16:53:36;3.80;;;1.25;;
32932;SDS011;19444;50.518;10.870;2022-08-03T16:56:54;2.45;;;0.98;;
32932;SDS011;19444;50.518;10.870;2022-08-03T16:59:52;0.90;;;0.80;;
32932;SDS011;19444;50.518;10.870;2022-08-03T17:02:49;1.20;;;0.90;;
32932;SDS011;19444;50.518;10.870;2022-08-03T17:05:48;1.30;;;0.95;;
32932;SDS011;19444;50.518;10.870;2022-08-03T17:08:45;3.25;;;1.20;;
32932;SDS011;19444;50.518;10.870;2022-08-03T17:11:50;1.63;;;1.40;;
32932;SDS011;19444;50.518;10.870;2022-08-03T17:14:47;1.85;;;0.98;;
32932;SDS011;19444;50.518;10.870;2022-08-03T17:17:47;1.15;;;1.00;;
32932;SDS011;19444;50.518;10.870;2022-08-03T17:21:04;4.22;;;1.20;;
32932;SDS011;19444;50.518;10.870;2022-08-03T17:24:07;1.35;;;1.00;;
32932;SDS011;19444;50.518;10.870;2022-08-03T17:27:16;1.60;;;1.50;;
32932;SDS011;19444;50.518;10.870;2022-08-03T17:30:40;2.85;;;1.00;;
32932;SDS011;19444;50.518;10.870;2022-08-03T17:33:59;2.92;;;1.50;;
32932;SDS011;19444;50.518;10.870;2022-08-03T17:36:59;2.80;;;2.60;;
32932;SDS011;19444;50.518;10.870;2022-08-03T17:40:00;2.33;;;1.60;;
32932;SDS011;19444;50.518;10.870;2022-08-03T17:42:59;2.90;;;1.67;;
32932;SDS011;19444;50.518;10.870;2022-08-03T17:46:18;4.38;;;2.50;;
32932;SDS011;19444;50.518;10.870;2022-08-03T17:49:18;9.68;;;5.35;;
32932;SDS011;19444;50.518;10.870;2022-08-03T17:52:27;2.58;;;1.85;;
32932;SDS011;19444;50.518;10.870;2022-08-03T17:55:35;7.00;;;3.85;;
32932;SDS011;19444;50.518;10.870;2022-08-03T18:05:44;2.33;;;1.90;;
32932;SDS011;19444;50.518;10.870;2022-08-03T18:09:02;3.15;;;1.83;;
32932;SDS011;19444;50.518;10.870;2022-08-03T18:12:25;1.80;;;1.40;;
32932;SDS011;19444;50.518;10.870;2022-08-03T18:15:27;2.47;;;1.80;;
32932;SDS011;19444;50.518;10.870;2022-08-03T18:18:34;1.73;;;1.27;;
32932;SDS011;19444;50.518;10.870;2022-08-03T18:21:57;5.95;;;1.52;;
32932;SDS011;19444;50.518;10.870;2022-08-03T18:24:59;2.95;;;1.40;;
32932;SDS011;19444;50.518;10.870;2022-08-03T18:28:04;5.13;;;1.55;;
32932;SDS011;19444;50.518;10.870;2022-08-03T18:31:01;2.97;;;1.98;;
32932;SDS011;19444;50.518;10.870;2022-08-03T18:34:01;3.80;;;3.35;;
32932;SDS011;19444;50.518;10.870;2022-08-03T18:37:15;4.78;;;4.15;;
32932;SDS011;19444;50.518;10.870;2022-08-03T18:40:20;4.70;;;4.30;;
32932;SDS011;19444;50.518;10.870;2022-08-03T18:43:23;9.07;;;5.60;;
32932;SDS011;19444;50.518;10.870;2022-08-03T18:50:21;3.00;;;2.25;;
32932;SDS011;19444;50.518;10.870;2022-08-03T18:53:52;6.30;;;2.58;;
32932;SDS011;19444;50.518;10.870;2022-08-03T18:57:48;4.20;;;2.50;;
32932;SDS011;19444;50.518;10.870;2022-08-03T19:00:57;3.10;;;2.00;;
32932;SDS011;19444;50.518;10.870;2022-08-03T19:04:45;3.03;;;1.83;;
32932;SDS011;19444;50.518;10.870;2022-08-03T19:07:45;4.40;;;2.05;;